CW1100 Weather Reports


Display with metric or nautical units.
time (UTC)temp
F
wind
direction
speed
MPH
gust
MPH
rain 1hr
in
rain 24hr
in
rain mn
in
humidity
%
barometer
mb
20260906214004 70 81 8.0 23.0 0.00 1.33 1.42 77 1022.4
20260906213504 71 108 10.0 18.0 0.00 1.33 1.42 77 1022.2
20260906212504 70 108 9.0 20.0 0.00 1.33 1.42 77 1022.1
20260906212004 71 106 10.0 18.0 0.00 1.33 1.42 76 1022.3
20260906211504 71 96 10.0 20.0 0.00 1.33 1.42 76 1022.2
20260906211004 71 89 8.0 20.0 0.00 1.33 1.42 76 1022.2
20260906210504 71 96 9.0 18.0 0.00 1.33 1.42 76 1022.3
20260906210004 70 89 9.0 18.0 0.00 1.33 1.42 76 1022.4
20260906205004 71 101 9.0 15.0 0.00 1.33 1.42 75 1022.3
20260906204504 71 88 7.0 15.0 0.00 1.33 1.42 76 1022.3
20260906204004 71 96 8.0 16.0 0.00 1.33 1.42 75 1022.4
20260906203504 71 75 6.0 16.0 0.00 1.33 1.42 76 1022.5
20260906203004 70 75 7.0 16.0 0.00 1.33 1.42 77 1022.5
20260906202504 70 103 7.0 15.0 0.00 1.33 1.42 75 1022.7
20260906202004 70 92 9.0 20.0 0.00 1.33 1.42 75 1022.8
20260906201504 71 109 7.0 20.0 0.00 1.33 1.42 75 1022.7
20260906201004 71 109 6.0 17.0 0.00 1.33 1.42 78 1022.4
20260906200504 70 110 5.0 13.0 0.00 1.33 1.42 78 1022.6
20260906195504 69 88 6.0 13.0 0.00 1.33 1.42 77 1022.6
20260906195004 69 63 4.0 13.0 0.00 1.33 1.42 77 1022.5
20260906194504 69 95 5.0 14.0 0.00 1.33 1.42 78 1022.6
20260906193504 69 101 7.0 15.0 0.00 1.33 1.42 77 1022.2
20260906193005 69 94 7.0 14.0 0.00 1.33 1.42 76 1022.0
20260906192504 69 100 7.0 15.0 0.00 1.33 1.42 75 1022.2
20260906192004 69 78 8.0 15.0 0.00 1.33 1.42 74 1022.3
20260906191504 69 96 5.0 15.0 0.00 1.33 1.42 75 1022.5
20260906191004 70 89 7.0 16.0 0.00 1.33 1.42 73 1022.5
20260906190504 70 79 7.0 16.0 0.00 1.33 1.42 72 1022.9
20260906185504 70 98 5.0 12.0 0.00 1.33 1.42 74 1023.1
20260906185004 70 72 4.0 12.0 0.00 1.33 1.42 76 1023.2
20260906184504 70 61 3.0 10.0 0.00 1.33 1.42 78 1023.1
20260906183004 69 77 5.0 12.0 0.00 1.33 1.42 78 1023.6
20260906182504 68 71 5.0 15.0 0.00 1.33 1.42 80 1023.6
20260906181504 69 48 5.0 15.0 0.00 1.33 1.42 82 1023.8
20260906181005 67 53 7.0 15.0 0.00 1.33 1.42 82 1023.8
20260906180504 67 59 6.0 15.0 0.00 1.33 1.42 83 1024.0
20260906175504 66 58 7.0 13.0 0.00 1.33 1.42 82 1024.2
20260906175004 66 56 5.0 15.0 0.00 1.33 1.42 83 1024.3
20260906174504 66 62 7.0 15.0 0.00 1.33 1.42 82 1024.4
20260906174004 66 65 6.0 14.0 0.00 1.33 1.42 82 1024.2
20260906173504 66 59 6.0 14.0 0.00 1.33 1.42 81 1024.3
20260906173004 67 66 7.0 15.0 0.00 1.33 1.42 81 1024.5
20260906172504 67 54 7.0 15.0 0.00 1.33 1.42 81 1024.4
20260906172004 67 72 4.0 17.0 0.00 1.33 1.42 82 1024.0
20260906171504 67 64 5.0 20.0 0.00 1.33 1.42 83 1023.8
20260906170503 67 66 7.0 18.0 0.00 1.33 1.42 82 1023.5
20260906170003 66 75 7.0 18.0 0.00 1.33 1.42 83 1023.4
20260906165504 66 61 8.0 16.0 0.00 1.33 1.42 84 1023.5
20260906165004 66 66 9.0 16.0 0.00 1.33 1.42 83 1023.5
20260906164504 66 40 7.0 17.0 0.00 1.33 1.42 83 1023.4
20260906164004 66 27 9.0 17.0 0.00 1.33 1.42 83 1023.2
20260906163004 65 36 7.0 14.0 0.00 1.33 1.42 85 1023.1
20260906162504 65 24 7.0 14.0 0.00 1.33 1.42 86 1022.9
20260906162004 64 40 8.0 14.0 0.00 1.33 1.42 87 1023.2
20260906161504 64 33 6.0 16.0 0.00 1.33 1.42 88 1023.2
20260906161004 64 41 8.0 17.0 0.00 1.33 1.42 90 1023.5
20260906155504 62 48 7.0 16.0 0.00 1.33 1.42 93 1024.1
20260906155004 62 44 7.0 16.0 0.00 1.33 1.42 94 1024.2
20260906154504 61 32 8.0 14.0 0.00 1.33 1.42 95 1024.3
20260906154004 61 36 5.0 17.0 0.00 1.33 1.42 95 1024.4
20260906153504 61 44 8.0 22.0 0.00 1.33 1.42 95 1024.3
20260906153005 61 36 8.0 22.0 0.01 1.33 1.42 95 1024.1
20260906152504 61 36 12.0 22.0 0.03 1.33 1.42 95 1023.9
20260906152004 61 39 11.0 18.0 0.12 1.33 1.42 95 1024.3
20260906151504 61 48 10.0 17.0 0.29 1.33 1.42 95 1024.7
20260906151004 61 17 12.0 26.0 0.90 1.33 1.42 95 1025.4
20260906150504 61 21 9.0 26.0 1.23 1.33 1.42 95 1025.4
20260906150004 62 2 15.0 26.0 1.31 1.33 1.42 95 1025.5
20260906145504 62 32 7.0 12.0 1.32 1.33 1.42 95 1025.5
20260906145004 62 17 6.0 12.0 1.33 1.33 1.42 95 1025.5
20260906144504 62 39 5.0 16.0 1.33 1.33 1.42 95 1025.0
20260906144004 62 43 9.0 16.0 1.33 1.33 1.42 95 1024.7
20260906143504 62 350 10.0 15.0 1.33 1.33 1.42 95 1024.6
20260906142504 62 59 5.0 14.0 1.30 1.30 1.39 94 1024.3
20260906142004 63 47 9.0 28.0 1.21 1.21 1.30 94 1024.5
20260906141504 63 335 8.0 39.0 1.04 1.04 1.13 99 1026.0
20260906141004 63 244 21.0 39.0 0.43 0.43 0.52 93 1027.0
20260906140004 64 261 7.0 13.0 0.02 0.02 0.11 94 1025.3
20260906135504 65 298 3.0 9.0 0.01 0.01 0.10 94 1024.4
20260906135004 65 334 3.0 5.0 0.00 0.00 0.09 93 1024.2
20260906134504 65 332 2.0 3.0 0.00 0.00 0.09 93 1024.2
20260906134004 65 286 2.0 3.0 0.00 0.00 0.09 93 1024.3
20260906133504 65 350 1.0 3.0 0.00 0.00 0.09 93 1024.4
20260906132504 65 90 1.0 6.0 0.09 0.00 0.09 93 1024.1
20260906132004 65 143 1.0 7.0 0.09 0.00 0.09 93 1024.2
20260906130504 64 113 2.0 8.0 0.09 0.00 0.09 94 1023.8
20260906130004 64 123 2.0 8.0 0.09 0.00 0.09 94 1023.8
20260906125504 64 97 3.0 8.0 0.09 0.00 0.09 94 1023.7
20260906124505 64 75 1.0 10.0 0.09 0.00 0.09 94 1023.6
20260906123504 64 77 5.0 12.0 0.00 0.00 0.00 94 1023.1
20260906122504 64 96 5.0 12.0 0.00 0.00 0.00 94 1023.2
20260906122004 64 92 4.0 9.0 0.00 0.00 0.00 94 1023.5
20260906121504 64 94 4.0 10.0 0.00 0.00 0.00 94 1023.5
20260906120504 65 95 2.0 7.0 0.00 0.00 0.00 95 1023.9
20260906115504 65 57 3.0 8.0 0.00 0.00 0.00 95 1023.9
20260906115004 65 46 3.0 6.0 0.00 0.00 0.00 95 1023.9
20260906114504 65 52 3.0 6.0 0.00 0.00 0.00 95 1023.9
20260906113504 64 41 3.0 8.0 0.00 0.00 0.00 95 1023.8
20260906113004 64 34 2.0 8.0 0.00 0.00 0.00 95 1023.9
20260906112004 64 40 3.0 10.0 0.00 0.00 0.00 95 1023.7
20260906111504 64 52 5.0 10.0 0.00 0.00 0.00 95 1023.6
20260906111004 64 54 4.0 9.0 0.00 0.00 0.00 95 1023.6
20260906110004 64 27 3.0 10.0 0.00 0.00 0.00 95 1023.8
20260906105504 64 19 4.0 10.0 0.00 0.00 0.00 95 1023.6
20260906105003 64 32 4.0 10.0 0.00 0.00 0.00 100 1023.6
20260906104504 63 41 4.0 9.0 0.00 0.00 0.00 96 1023.6
20260906104004 63 29 2.0 5.0 0.00 0.00 0.00 95 1023.5
20260906103004 63 29 3.0 5.0 0.00 0.00 0.00 100 1023.3
20260906102504 63 32 3.0 5.0 0.00 0.00 0.00 95 1023.3
20260906102004 62 33 3.0 8.0 0.00 0.00 0.00 95 1023.4
20260906101504 62 34 3.0 8.0 0.00 0.00 0.00 95 1023.4
20260906100504 62 7 4.0 7.0 0.00 0.00 0.00 95 1023.5
20260906100004 62 37 3.0 9.0 0.00 0.00 0.00 95 1023.5
20260906095004 62 0 5.0 9.0 0.00 0.00 0.00 95 1023.6
20260906094504 62 30 3.0 9.0 0.00 0.00 0.00 95 1023.5
20260906094004 62 7 5.0 9.0 0.00 0.00 0.00 95 1023.6
20260906093504 62 357 4.0 6.0 0.00 0.00 0.00 95 1023.6
20260906093004 62 30 2.0 5.0 0.00 0.00 0.00 95 1023.6
20260906092504 62 18 3.0 9.0 0.00 0.00 0.00 95 1023.7
20260906092004 62 33 2.0 9.0 0.00 0.00 0.00 95 1023.7
20260906091504 62 338 3.0 9.0 0.00 0.00 0.00 94 1023.8
20260906091004 63 351 2.0 3.0 0.00 0.00 0.00 95 1023.7
20260906090504 62 30 1.0 3.0 0.00 0.00 0.00 94 1023.6
20260906090004 62 30 1.0 3.0 0.00 0.00 0.00 94 1023.6
20260906085504 62 44 1.0 3.0 0.00 0.00 0.00 94 1023.6
20260906085004 62 44 1.0 3.0 0.00 0.00 0.00 94 1023.7
20260906084504 63 44 2.0 5.0 0.00 0.00 0.00 94 1023.7
20260906084004 63 44 2.0 5.0 0.00 0.00 0.00 94 1023.7
20260906083504 63 31 2.0 5.0 0.00 0.00 0.00 94 1023.7
20260906083004 63 30 2.0 5.0 0.00 0.00 0.00 94 1023.7
20260906082504 63 44 3.0 5.0 0.00 0.00 0.00 94 1023.7
20260906082004 63 9 3.0 5.0 0.00 0.00 0.00 93 1023.7
20260906081504 63 15 2.0 5.0 0.00 0.00 0.00 94 1023.7
20260906081004 63 31 3.0 5.0 0.00 0.00 0.00 93 1023.8
20260906080504 63 30 3.0 5.0 0.00 0.00 0.00 93 1023.8
20260906080004 63 21 3.0 7.0 0.00 0.00 0.00 93 1023.9
20260906075504 63 34 2.0 7.0 0.00 0.00 0.00 93 1023.9
20260906074504 64 26 3.0 5.0 0.00 0.00 0.00 93 1024.1
20260906074004 64 18 3.0 6.0 0.00 0.00 0.00 93 1024.1
20260906073504 64 29 3.0 7.0 0.00 0.00 0.00 93 1024.1
20260906073004 64 17 3.0 7.0 0.00 0.00 0.00 93 1024.2
20260906072004 64 17 4.0 9.0 0.00 0.00 0.00 93 1024.3
20260906071504 64 14 5.0 8.0 0.00 0.00 0.00 92 1024.4
20260906071004 64 25 3.0 7.0 0.00 0.00 0.00 92 1024.4
20260906070504 64 39 3.0 7.0 0.00 0.00 0.00 92 1024.4
20260906070004 65 19 3.0 6.0 0.00 0.00 0.00 92 1024.4
20260906065504 65 22 4.0 6.0 0.00 0.00 0.00 92 1024.4
20260906065004 65 34 3.0 7.0 0.00 0.00 0.00 92 1024.4
20260906064504 65 29 4.0 9.0 0.00 0.00 0.00 92 1024.4
20260906064004 65 55 4.0 12.0 0.00 0.00 0.00 92 1024.4
20260906063504 65 17 3.0 12.0 0.00 0.00 0.00 91 1024.5
20260906063004 65 26 6.0 12.0 0.00 0.00 0.00 91 1024.5
20260906062504 65 30 6.0 12.0 0.00 0.00 0.00 91 1024.5
20260906062004 66 30 6.0 12.0 0.00 0.00 0.00 91 1024.5
20260906061504 66 10 5.0 12.0 0.00 0.00 0.00 91 1024.5
20260906060004 70 36 6.0 12.0 0.00 0.00 0.00 82 1024.1
20260906034503 70 45 5.0 15.0 0.00 0.00 0.00 82 1024.1
20260906034004 71 62 6.0 15.0 0.00 0.00 0.00 82 1024.0
20260906033004 71 37 7.0 14.0 0.00 0.00 0.00 81 1024.1
20260906032503 71 39 7.0 14.0 0.00 0.00 0.00 82 1024.1
20260906032004 71 38 6.0 10.0 0.00 0.00 0.00 81 1024.0
20260906031004 70 28 5.0 10.0 0.00 0.00 0.00 82 1024.0
20260906025504 70 36 5.0 13.0 0.00 0.00 0.00 82 1024.0
20260906025004 70 33 5.0 13.0 0.00 0.00 0.00 82 1024.0
20260906024504 70 27 6.0 13.0 0.00 0.00 0.00 82 1024.0
20260906024004 71 18 5.0 10.0 0.00 0.00 0.00 81 1024.0
20260906023504 71 20 5.0 10.0 0.00 0.00 0.00 81 1024.0
20260906023004 71 25 4.0 13.0 0.00 0.00 0.00 81 1023.8
20260906022503 71 32 4.0 13.0 0.00 0.00 0.00 81 1023.7
20260906022004 71 39 5.0 10.0 0.00 0.00 0.00 81 1023.6
20260906021504 71 26 5.0 10.0 0.00 0.00 0.00 81 1023.6
20260906021004 71 16 5.0 13.0 0.00 0.00 0.00 81 1023.5
20260906020504 71 27 7.0 13.0 0.00 0.00 0.00 81 1023.4
20260906020004 72 18 6.0 13.0 0.00 0.00 0.00 81 1023.4
20260906015504 72 32 6.0 12.0 0.00 0.00 0.00 81 1023.3
20260906015004 72 33 7.0 12.0 0.00 0.00 0.00 80 1023.3
20260906014504 72 14 7.0 12.0 0.00 0.00 0.00 80 1023.2
20260906014004 73 15 7.0 12.0 0.00 0.00 0.00 79 1023.2
20260906013504 73 28 5.0 10.0 0.00 0.00 0.00 79 1023.2
20260906013004 73 21 5.0 12.0 0.00 0.00 0.00 79 1023.1
20260906012504 73 14 7.0 12.0 0.00 0.00 0.00 78 1022.9
20260906012004 74 27 6.0 10.0 0.00 0.00 0.00 77 1022.7
20260906011504 74 9 7.0 12.0 0.00 0.00 0.00 77 1022.7
20260906011004 75 24 6.0 13.0 0.00 0.00 0.00 77 1022.6
20260906010504 75 16 7.0 15.0 0.00 0.00 0.00 76 1022.6
20260906010004 75 32 7.0 15.0 0.00 0.00 0.00 75 1022.6
20260906005004 76 33 9.0 16.0 0.00 0.00 0.00 74 1022.5
20260906004504 76 33 7.0 16.0 0.00 0.00 0.00 74 1022.4
20260906004004 76 34 9.0 15.0 0.00 0.00 0.00 73 1022.4
20260906003504 76 17 9.0 14.0 0.00 0.00 0.00 73 1022.5
20260906003004 77 28 7.0 15.0 0.00 0.00 0.00 73 1022.5
20260906002504 77 38 7.0 15.0 0.00 0.00 0.00 73 1022.5
20260906002005 77 40 8.0 16.0 0.00 0.00 0.00 72 1022.4
20260906001504 78 41 12.0 16.0 0.00 0.00 0.00 71 1022.5
20260906001004 78 28 7.0 20.0 0.00 0.00 0.00 71 1022.4
20260905235504 78 9 9.0 17.0 0.00 0.00 0.00 69 1022.3
20260905235004 78 17 12.0 17.0 0.00 0.00 0.00 68 1022.4
20260905234004 79 13 10.0 18.0 0.00 0.00 0.00 69 1022.4
20260905233504 79 37 8.0 18.0 0.00 0.00 0.00 67 1022.4
20260905233004 79 352 10.0 18.0 0.00 0.00 0.00 67 1022.3
20260905232004 79 6 9.0 16.0 0.00 0.00 0.00 68 1022.3
20260905231504 79 355 6.0 18.0 0.00 0.00 0.00 67 1022.2
20260905231004 79 341 7.0 18.0 0.00 0.00 0.00 68 1022.1
20260905230504 79 2 9.0 20.0 0.00 0.00 0.00 69 1022.0
20260905230004 79 336 12.0 20.0 0.00 0.00 0.00 68 1022.0
20260905225504 79 350 12.0 18.0 0.00 0.00 0.00 69 1022.0
20260905225004 79 8 11.0 17.0 0.00 0.00 0.00 68 1022.0
20260905224504 80 335 12.0 17.0 0.00 0.00 0.00 68 1021.9
20260905223504 80 11 7.0 17.0 0.00 0.00 0.00 67 1022.0
20260905222504 80 357 5.0 18.0 0.00 0.00 0.00 67 1022.2
20260905222004 80 335 10.0 18.0 0.00 0.00 0.00 66 1022.2
20260905221504 80 354 6.0 12.0 0.00 0.00 0.00 67 1022.2
20260905221004 80 355 7.0 14.0 0.00 0.00 0.00 68 1022.3
20260905220504 80 312 4.0 15.0 0.00 0.00 0.00 67 1022.3
20260905220004 79 359 6.0 15.0 0.00 0.00 0.00 67 1022.3
20260905215004 80 7 9.0 17.0 0.00 0.00 0.00 68 1022.4
20260905214504 79 1 6.0 14.0 0.00 0.00 0.00 69 1022.3